createdAt,value
2018-06-19T00:00:44.212Z,3.40
2018-06-19T00:03:11.755Z,3.10
2018-06-19T00:05:39.273Z,3.20
2018-06-19T00:08:06.786Z,3.40
2018-06-19T00:10:34.311Z,2.93
2018-06-19T00:13:01.867Z,2.87
2018-06-19T00:15:29.375Z,3.03
2018-06-19T00:18:05.028Z,3.13
2018-06-19T00:20:32.543Z,3.13
2018-06-19T00:23:00.055Z,3.30
2018-06-19T00:25:27.563Z,3.53
2018-06-19T00:27:55.067Z,3.30
2018-06-19T00:30:22.604Z,3.37
2018-06-19T00:32:50.125Z,3.40
2018-06-19T00:35:17.635Z,3.23
2018-06-19T00:37:45.367Z,3.50
2018-06-19T00:40:12.873Z,3.13
2018-06-19T00:42:40.374Z,2.90
2018-06-19T00:45:07.916Z,3.40
2018-06-19T00:47:35.422Z,3.20
2018-06-19T00:50:02.940Z,3.57
2018-06-19T00:52:30.436Z,3.37
2018-06-19T00:54:57.962Z,3.63
2018-06-19T00:57:25.461Z,3.80
2018-06-19T00:59:52.970Z,3.33
2018-06-19T01:02:20.460Z,3.60
2018-06-19T01:04:47.964Z,3.77
2018-06-19T01:07:15.471Z,4.00
2018-06-19T01:09:42.999Z,4.07
2018-06-19T01:12:10.508Z,3.60
2018-06-19T01:14:38.027Z,3.60
2018-06-19T01:17:05.529Z,4.00
2018-06-19T01:19:33.035Z,4.13
2018-06-19T01:22:00.565Z,4.23
2018-06-19T01:24:28.068Z,4.87
2018-06-19T01:26:55.588Z,4.13
2018-06-19T01:29:23.108Z,4.70
2018-06-19T01:31:50.621Z,4.73
2018-06-19T01:34:18.115Z,4.43
2018-06-19T01:36:45.621Z,4.50
2018-06-19T01:39:13.114Z,4.30
2018-06-19T01:41:40.638Z,4.47
2018-06-19T01:44:08.248Z,4.33
2018-06-19T01:46:35.773Z,4.43
2018-06-19T01:49:03.279Z,4.73
2018-06-19T01:51:30.789Z,4.40
2018-06-19T01:53:58.275Z,4.70
2018-06-19T01:56:25.771Z,5.10
2018-06-19T01:58:53.672Z,4.87
2018-06-19T02:01:21.213Z,11.20
2018-06-19T02:03:48.722Z,6.80
2018-06-19T02:06:16.250Z,5.33
2018-06-19T02:08:43.758Z,5.33
2018-06-19T02:11:11.277Z,4.50
2018-06-19T02:13:39.176Z,5.23
2018-06-19T02:16:06.679Z,4.63
2018-06-19T02:18:34.223Z,5.27
2018-06-19T02:21:01.744Z,4.93
2018-06-19T02:23:29.261Z,4.80
2018-06-19T02:25:56.767Z,5.20
2018-06-19T02:28:24.266Z,5.57
2018-06-19T02:30:51.800Z,5.00
2018-06-19T02:33:19.415Z,5.53
2018-06-19T02:35:47.021Z,4.90
2018-06-19T02:38:14.563Z,5.33
2018-06-19T02:40:42.339Z,4.97
2018-06-19T02:43:09.844Z,5.50
2018-06-19T02:45:37.353Z,5.00
2018-06-19T02:48:04.877Z,5.00
2018-06-19T02:50:32.380Z,4.97
2018-06-19T02:52:59.901Z,5.20
2018-06-19T02:55:27.411Z,4.60
2018-06-19T02:57:54.931Z,5.03
2018-06-19T03:00:22.489Z,5.10
2018-06-19T03:02:49.948Z,4.47
2018-06-19T03:05:17.999Z,4.83
2018-06-19T03:07:45.524Z,4.70
2018-06-19T03:10:13.056Z,4.70
2018-06-19T03:12:40.564Z,5.03
2018-06-19T03:15:08.068Z,4.97
2018-06-19T03:17:35.571Z,4.40
2018-06-19T03:20:03.088Z,4.13
2018-06-19T03:22:30.607Z,4.93
2018-06-19T03:24:58.122Z,4.60
2018-06-19T03:27:25.733Z,4.50
2018-06-19T03:29:53.240Z,4.80
2018-06-19T03:32:20.758Z,4.20
2018-06-19T03:34:48.265Z,4.03
2018-06-19T03:37:15.784Z,4.67
2018-06-19T03:39:43.286Z,4.83
2018-06-19T03:42:10.786Z,5.20
2018-06-19T03:44:38.298Z,5.80
2018-06-19T03:47:05.803Z,5.53
2018-06-19T03:49:33.306Z,6.30
2018-06-19T03:52:00.805Z,6.73
2018-06-19T03:54:28.335Z,6.83
2018-06-19T03:56:55.848Z,6.37
2018-06-19T03:59:23.359Z,6.27
2018-06-19T04:01:50.869Z,5.70
2018-06-19T04:04:18.392Z,6.73
2018-06-19T04:06:45.892Z,5.67
2018-06-19T04:09:13.421Z,5.93
2018-06-19T04:11:40.937Z,5.57
2018-06-19T04:14:08.472Z,5.17
2018-06-19T04:16:35.978Z,5.37
2018-06-19T04:19:03.523Z,5.60
2018-06-19T04:21:31.039Z,4.90
2018-06-19T04:23:58.573Z,4.57
2018-06-19T04:26:26.086Z,4.80
2018-06-19T04:28:53.599Z,4.40
2018-06-19T04:31:21.107Z,4.50
2018-06-19T04:33:48.639Z,4.40
2018-06-19T04:36:16.135Z,4.37
2018-06-19T04:38:43.656Z,5.30
2018-06-19T04:41:11.171Z,4.35
2018-06-19T04:43:38.696Z,4.58
2018-06-19T04:46:06.225Z,3.95
2018-06-19T04:48:33.741Z,4.25
2018-06-19T04:51:01.288Z,3.87
2018-06-19T04:53:29.049Z,4.50
2018-06-19T04:55:56.591Z,4.05
2018-06-19T04:58:24.115Z,4.10
2018-06-19T05:00:51.648Z,3.70
2018-06-19T05:03:19.175Z,3.52
2018-06-19T05:05:46.704Z,3.65
2018-06-19T05:08:14.221Z,3.83
2018-06-19T05:10:41.985Z,4.10
2018-06-19T05:13:09.512Z,3.70
2018-06-19T05:15:37.027Z,3.83
2018-06-19T05:18:04.625Z,4.37
2018-06-19T05:20:32.147Z,3.22
2018-06-19T05:22:59.672Z,3.95
2018-06-19T05:25:27.203Z,4.03
2018-06-19T05:27:54.711Z,3.70
2018-06-19T05:30:22.493Z,4.00
2018-06-19T05:32:53.804Z,4.30
2018-06-19T05:35:21.341Z,4.22
2018-06-19T05:37:48.851Z,4.22
2018-06-19T05:40:16.387Z,3.80
2018-06-19T05:42:43.999Z,4.03
2018-06-19T05:45:11.547Z,4.47
2018-06-19T05:47:39.067Z,3.83
2018-06-19T05:50:06.635Z,3.60
2018-06-19T05:52:34.403Z,3.85
2018-06-19T05:55:01.960Z,3.65
2018-06-19T05:57:29.536Z,3.90
2018-06-19T05:59:57.071Z,3.30
2018-06-19T06:02:24.624Z,3.70
2018-06-19T06:04:52.163Z,3.65
2018-06-19T06:07:20.053Z,3.75
2018-06-19T06:09:47.925Z,3.40
2018-06-19T06:12:15.444Z,3.67
2018-06-19T06:14:42.997Z,3.62
2018-06-19T06:17:10.529Z,3.65
2018-06-19T06:19:38.084Z,3.90
2018-06-19T06:22:05.648Z,3.52
2018-06-19T06:24:33.140Z,3.25
2018-06-19T06:27:00.655Z,3.40
2018-06-19T06:29:28.163Z,3.17
2018-06-19T06:31:55.673Z,3.20
2018-06-19T06:34:23.226Z,2.87
2018-06-19T06:36:50.775Z,3.05
2018-06-19T06:39:18.311Z,3.02
2018-06-19T06:41:45.831Z,3.25
2018-06-19T06:44:13.351Z,3.12
2018-06-19T06:46:51.578Z,2.80
2018-06-19T06:49:19.135Z,2.72
2018-06-19T06:51:46.651Z,2.62
2018-06-19T06:54:14.359Z,2.75
2018-06-19T06:56:41.963Z,2.65
2018-06-19T06:59:09.488Z,2.62
2018-06-19T07:01:37.009Z,2.60
2018-06-19T07:04:04.568Z,3.20
2018-06-19T07:06:32.343Z,2.98
2018-06-19T07:08:59.859Z,3.20
2018-06-19T07:11:27.359Z,3.00
2018-06-19T07:13:54.893Z,3.10
2018-06-19T07:16:22.372Z,3.17
2018-06-19T07:18:49.889Z,3.33
2018-06-19T07:21:17.367Z,3.62
2018-06-19T07:23:44.858Z,2.85
2018-06-19T07:26:12.424Z,2.72
2018-06-19T07:28:39.915Z,3.15
2018-06-19T07:31:07.426Z,2.92
2018-06-19T07:33:34.973Z,3.20
2018-06-19T07:36:02.473Z,3.37
2018-06-19T07:38:29.975Z,3.08
2018-06-19T07:40:57.490Z,3.30
2018-06-19T07:43:24.999Z,3.30
2018-06-19T07:45:52.509Z,3.60
2018-06-19T07:48:20.029Z,3.67
2018-06-19T07:50:47.539Z,3.67
2018-06-19T07:53:15.057Z,3.80
2018-06-19T07:55:42.565Z,3.77
2018-06-19T07:58:10.086Z,3.80
2018-06-19T08:00:37.603Z,3.70
2018-06-19T08:03:05.172Z,3.52
2018-06-19T08:05:32.674Z,3.90
2018-06-19T08:08:00.210Z,3.60
2018-06-19T08:10:27.731Z,3.70
2018-06-19T08:12:55.256Z,3.58
2018-06-19T08:15:22.796Z,3.72
2018-06-19T08:17:50.324Z,3.45
2018-06-19T08:20:17.872Z,4.17
2018-06-19T08:22:45.414Z,3.87
2018-06-19T08:25:12.920Z,3.92
2018-06-19T08:27:40.443Z,3.42
2018-06-19T08:30:07.963Z,3.90
2018-06-19T08:32:35.620Z,3.98
2018-06-19T08:35:03.179Z,3.90
2018-06-19T08:37:30.724Z,3.70
2018-06-19T08:39:58.245Z,4.58
2018-06-19T08:42:25.767Z,3.83
2018-06-19T08:44:53.304Z,4.20
2018-06-19T08:47:20.820Z,3.80
2018-06-19T08:49:48.364Z,3.83
2018-06-19T08:52:16.112Z,4.20
2018-06-19T08:54:43.650Z,4.45
2018-06-19T08:57:11.169Z,3.80
2018-06-19T08:59:38.707Z,3.70
2018-06-19T09:02:06.244Z,4.12
2018-06-19T09:04:49.658Z,4.20
2018-06-19T09:07:17.203Z,4.80
2018-06-19T09:09:44.791Z,4.40
2018-06-19T09:12:31.577Z,5.15
2018-06-19T09:18:00.947Z,4.60
2018-06-19T09:20:28.555Z,4.67
2018-06-19T09:22:56.036Z,4.22
2018-06-19T09:25:23.552Z,4.53
2018-06-19T09:27:51.054Z,4.92
2018-06-19T09:30:18.575Z,4.78
2018-06-19T09:32:46.099Z,4.92
2018-06-19T09:35:13.624Z,5.10
2018-06-19T09:37:41.163Z,4.97
2018-06-19T09:40:08.704Z,5.30
2018-06-19T09:42:36.623Z,4.92
2018-06-19T09:45:04.196Z,5.25
2018-06-19T09:47:48.419Z,5.78
2018-06-19T09:50:15.964Z,5.05
2018-06-19T09:52:43.510Z,5.65
2018-06-19T09:55:11.066Z,4.80
2018-06-19T09:57:38.791Z,5.40
2018-06-19T10:00:06.357Z,5.28
2018-06-19T10:02:37.723Z,5.95
2018-06-19T10:05:22.957Z,5.78
2018-06-19T10:07:50.526Z,5.45
2018-06-19T10:10:18.052Z,5.65
2018-06-19T10:12:45.584Z,5.75
2018-06-19T10:15:13.099Z,6.22
2018-06-19T10:17:40.653Z,5.53
2018-06-19T10:20:08.186Z,5.60
2018-06-19T10:22:35.716Z,6.17
2018-06-19T10:25:03.264Z,5.50
2018-06-19T10:27:30.820Z,5.65
2018-06-19T10:29:58.339Z,5.40
2018-06-19T10:32:25.880Z,5.20
2018-06-19T10:34:53.419Z,5.42
2018-06-19T10:38:24.222Z,5.20
2018-06-19T10:40:51.777Z,4.87
2018-06-19T10:43:19.343Z,5.28
2018-06-19T10:45:46.878Z,4.97
2018-06-19T10:48:14.414Z,5.12
2018-06-19T10:50:41.935Z,4.10
2018-06-19T10:53:09.562Z,3.83
2018-06-19T10:55:37.105Z,3.65
2018-06-19T10:58:04.653Z,4.12
2018-06-19T11:00:32.183Z,3.98
2018-06-19T11:02:59.719Z,3.98
2018-06-19T11:05:27.243Z,3.87
2018-06-19T11:07:54.808Z,3.67
2018-06-19T11:10:22.352Z,3.50
2018-06-19T11:12:49.877Z,3.87
2018-06-19T11:15:42.471Z,3.65
2018-06-19T11:18:10.009Z,3.83
2018-06-19T11:20:41.120Z,3.60
2018-06-19T11:23:08.737Z,3.60
2018-06-19T11:25:36.310Z,4.05
2018-06-19T11:28:03.856Z,3.70
2018-06-19T11:30:31.388Z,3.60
2018-06-19T11:32:58.955Z,3.17
2018-06-19T11:35:26.463Z,3.60
2018-06-19T11:37:53.997Z,3.40
2018-06-19T11:40:45.036Z,3.47
2018-06-19T11:43:12.599Z,3.27
2018-06-19T11:45:40.203Z,3.90
2018-06-19T11:48:07.740Z,3.60
2018-06-19T11:50:35.275Z,3.50
2018-06-19T11:56:29.228Z,3.35
2018-06-19T11:58:56.764Z,3.47
2018-06-19T12:01:29.976Z,3.25
2018-06-19T12:03:57.507Z,3.60
2018-06-19T12:06:25.019Z,3.55
2018-06-19T12:08:52.591Z,3.60
2018-06-19T12:11:20.131Z,3.22
2018-06-19T12:16:57.371Z,3.60
2018-06-19T12:19:25.061Z,3.58
2018-06-19T12:21:52.634Z,3.12
2018-06-19T12:24:20.171Z,3.47
2018-06-19T12:26:47.707Z,3.30
2018-06-19T12:29:15.239Z,3.47
2018-06-19T12:31:42.804Z,2.80
2018-06-19T12:34:10.328Z,3.08
2018-06-19T12:36:37.847Z,2.98
2018-06-19T12:39:08.592Z,2.98
2018-06-19T12:41:40.467Z,3.02
2018-06-19T12:44:08.322Z,3.02
2018-06-19T12:46:36.181Z,2.90
2018-06-19T12:49:03.752Z,2.85
2018-06-19T12:52:48.495Z,2.90
2018-06-19T12:56:19.649Z,3.30
2018-06-19T12:58:47.203Z,2.90
2018-06-19T13:01:14.729Z,2.80
2018-06-19T13:03:59.721Z,2.98
2018-06-19T13:06:32.769Z,2.70
2018-06-19T13:09:00.338Z,2.87
2018-06-19T13:11:27.881Z,2.92
2018-06-19T13:14:12.928Z,2.58
2018-06-19T13:16:58.040Z,2.40
2018-06-19T13:19:43.192Z,2.58
2018-06-19T13:22:10.720Z,2.80
2018-06-19T13:24:38.276Z,2.72
2018-06-19T13:27:05.845Z,2.80
2018-06-19T13:35:37.819Z,2.70
2018-06-19T13:38:05.411Z,2.87
2018-06-19T13:41:18.886Z,2.40
2018-06-19T13:44:05.574Z,2.72
2018-06-19T13:46:33.131Z,2.30
2018-06-19T13:49:00.681Z,2.75
2018-06-19T13:51:28.228Z,2.60
2018-06-19T13:53:55.771Z,2.70
2018-06-19T13:57:40.386Z,2.87
2018-06-19T14:00:20.085Z,3.15
2018-06-19T14:02:47.644Z,2.60
2018-06-19T14:05:16.359Z,2.70
2018-06-19T14:08:00.596Z,2.67
2018-06-19T14:10:39.643Z,2.80
2018-06-19T14:13:07.149Z,2.62
2018-06-19T14:15:50.815Z,2.47
2018-06-19T14:18:19.663Z,2.77
2018-06-19T14:20:47.188Z,2.65
2018-06-19T14:23:14.742Z,2.58
2018-06-19T14:25:42.268Z,2.40
2018-06-19T14:28:09.790Z,2.72
2018-06-19T14:30:37.315Z,2.50
2018-06-19T14:33:05.016Z,2.33
2018-06-19T14:35:32.471Z,2.25
2018-06-19T14:37:59.987Z,2.50
2018-06-19T14:40:27.524Z,2.67
2018-06-19T14:42:55.023Z,2.85
2018-06-19T14:45:22.734Z,2.58
2018-06-19T14:47:50.507Z,2.47
2018-06-19T14:50:18.292Z,2.87
2018-06-19T14:52:46.036Z,2.72
2018-06-19T14:55:13.818Z,2.50
2018-06-19T14:57:41.532Z,2.70
2018-06-19T15:00:10.212Z,2.58
2018-06-19T15:02:38.017Z,2.60
2018-06-19T15:05:06.612Z,2.40
2018-06-19T15:07:40.125Z,6.28
2018-06-19T15:10:08.776Z,2.85
2018-06-19T15:12:36.718Z,2.42
2018-06-19T15:15:04.468Z,2.87
2018-06-19T15:17:32.314Z,2.60
2018-06-19T15:20:00.090Z,2.58
2018-06-19T15:22:27.928Z,2.70
2018-06-19T15:24:55.737Z,2.70
2018-06-19T15:27:42.898Z,2.77
2018-06-19T15:30:10.911Z,2.95
2018-06-19T15:32:38.665Z,2.45
2018-06-19T15:35:06.444Z,2.95
2018-06-19T15:37:34.225Z,2.80
2018-06-19T15:40:02.077Z,3.10
2018-06-19T15:42:29.823Z,2.45
2018-06-19T15:48:06.077Z,2.70
2018-06-19T15:50:33.829Z,2.83
2018-06-19T15:53:01.573Z,2.80
2018-06-19T15:55:29.235Z,2.62
2018-06-19T15:57:57.013Z,2.75
2018-06-19T16:00:24.736Z,3.00
2018-06-19T16:02:52.506Z,2.60
2018-06-19T16:05:20.279Z,2.65
2018-06-19T16:07:53.675Z,2.77
2018-06-19T16:10:21.427Z,2.45
2018-06-19T16:12:49.268Z,2.85
2018-06-19T16:15:20.034Z,2.70
2018-06-19T16:17:47.760Z,3.10
2018-06-19T16:20:15.489Z,3.00
2018-06-19T16:22:43.257Z,2.85
2018-06-19T16:25:10.969Z,2.50
2018-06-19T16:27:38.738Z,2.87
2018-06-19T16:30:06.485Z,2.60
2018-06-19T16:32:34.184Z,2.77
2018-06-19T16:35:01.960Z,2.52
2018-06-19T16:37:29.693Z,2.60
2018-06-19T16:39:57.520Z,3.30
2018-06-19T16:42:25.244Z,2.60
2018-06-19T16:44:52.954Z,2.98
2018-06-19T16:47:20.629Z,2.52
2018-06-19T16:49:48.312Z,2.80
2018-06-19T16:52:16.068Z,2.90
2018-06-19T16:54:43.756Z,2.83
2018-06-19T16:57:11.521Z,2.80
2018-06-19T16:59:39.295Z,2.80
2018-06-19T17:02:06.992Z,2.65
2018-06-19T17:04:34.662Z,2.70
2018-06-19T17:07:02.522Z,2.60
2018-06-19T17:09:30.216Z,2.52
2018-06-19T17:11:57.931Z,2.80
2018-06-19T17:14:25.632Z,2.35
2018-06-19T17:16:53.442Z,2.47
2018-06-19T17:19:21.137Z,2.58
2018-06-19T17:21:48.884Z,2.60
2018-06-19T17:24:16.621Z,2.40
2018-06-19T17:26:44.340Z,2.62
2018-06-19T17:29:12.081Z,2.70
2018-06-19T17:31:39.857Z,2.65
2018-06-19T17:34:07.612Z,2.20
2018-06-19T17:36:35.353Z,2.62
2018-06-19T17:39:05.631Z,2.17
2018-06-19T17:41:33.363Z,2.75
2018-06-19T17:44:01.114Z,2.47
2018-06-19T17:46:28.872Z,2.40
2018-06-19T17:48:56.585Z,2.50
2018-06-19T17:51:24.309Z,2.37
2018-06-19T17:53:52.028Z,2.50
2018-06-19T17:56:20.719Z,2.47
2018-06-19T17:58:48.400Z,2.08
2018-06-19T18:01:16.096Z,2.47
2018-06-19T18:03:43.800Z,2.20
2018-06-19T18:06:11.558Z,2.20
2018-06-19T18:08:39.341Z,2.62
2018-06-19T18:11:07.096Z,2.30
2018-06-19T18:13:34.841Z,2.30
2018-06-19T18:16:02.569Z,2.20
2018-06-19T18:18:30.566Z,2.20
2018-06-19T18:20:58.313Z,2.22
2018-06-19T18:23:26.093Z,2.02
2018-06-19T18:25:53.835Z,2.35
2018-06-19T18:28:21.673Z,2.70
2018-06-19T18:30:49.515Z,2.40
2018-06-19T18:33:17.327Z,2.00
2018-06-19T18:35:45.065Z,2.40
2018-06-19T18:38:12.926Z,1.90
2018-06-19T18:40:40.764Z,2.30
2018-06-19T18:43:08.787Z,2.27
2018-06-19T18:45:36.836Z,2.20
2018-06-19T18:48:04.824Z,2.72
2018-06-19T18:50:32.596Z,2.40
2018-06-19T18:53:00.280Z,2.08
2018-06-19T18:55:28.052Z,2.17
2018-06-19T18:57:55.940Z,2.02
2018-06-19T19:00:23.685Z,2.70
2018-06-19T19:02:51.606Z,2.40
2018-06-19T19:05:19.349Z,2.17
2018-06-19T19:07:47.148Z,2.20
2018-06-19T19:10:20.643Z,2.45
2018-06-19T19:12:48.381Z,2.30
2018-06-19T19:15:21.792Z,2.45
2018-06-19T19:17:55.143Z,2.65
2018-06-19T19:20:22.920Z,2.25
2018-06-19T19:22:50.665Z,2.12
2018-06-19T19:25:18.444Z,2.50
2018-06-19T19:27:51.980Z,2.30
2018-06-19T19:30:19.740Z,2.55
2018-06-19T19:32:47.490Z,2.27
2018-06-19T19:35:15.372Z,2.27
2018-06-19T19:37:48.790Z,2.45
2018-06-19T19:40:16.574Z,2.83
2018-06-19T19:42:44.412Z,2.40
2018-06-19T19:45:12.241Z,2.60
2018-06-19T19:47:45.735Z,2.67
2018-06-19T19:50:13.468Z,2.40
2018-06-19T19:52:41.244Z,2.30
2018-06-19T19:55:09.004Z,3.65
2018-06-19T19:57:42.520Z,2.15
2018-06-19T20:00:14.917Z,2.62
2018-06-19T20:02:42.658Z,2.87
2018-06-19T20:05:10.564Z,2.65
2018-06-19T20:10:50.764Z,3.05
2018-06-19T20:13:18.931Z,2.55
2018-06-19T20:15:47.441Z,2.70
2018-06-19T20:18:15.257Z,3.08
2018-06-19T20:20:43.013Z,2.62
2018-06-19T20:23:10.741Z,2.85
2018-06-19T20:25:38.511Z,2.58
2018-06-19T20:28:06.577Z,2.80
2018-06-19T20:30:34.368Z,2.98
2018-06-19T20:33:02.125Z,2.62
2018-06-19T20:35:29.897Z,2.47
2018-06-19T20:37:57.716Z,2.72
2018-06-19T20:40:25.460Z,2.70
2018-06-19T20:42:53.217Z,3.00
2018-06-19T20:45:20.941Z,2.83
2018-06-19T20:47:48.801Z,3.17
2018-06-19T20:50:16.512Z,2.92
2018-06-19T20:52:44.232Z,2.90
2018-06-19T20:55:12.010Z,2.80
2018-06-19T20:57:39.759Z,2.95
2018-06-19T21:00:07.545Z,3.02
2018-06-19T21:02:35.309Z,3.00
2018-06-19T21:05:15.092Z,3.22
2018-06-19T21:07:43.001Z,3.25
2018-06-19T21:10:10.726Z,2.90
2018-06-19T21:12:56.756Z,3.00
2018-06-19T21:15:24.541Z,3.02
2018-06-19T21:17:52.300Z,3.40
2018-06-19T21:20:20.025Z,2.90
2018-06-19T21:22:47.812Z,3.40
2018-06-19T21:25:15.590Z,3.30
2018-06-19T21:28:06.436Z,3.23
2018-06-19T21:30:34.186Z,3.40
2018-06-19T21:33:01.982Z,3.17
2018-06-19T21:35:29.802Z,3.37
2018-06-19T21:37:57.534Z,3.53
2018-06-19T21:40:43.874Z,3.53
2018-06-19T21:43:23.046Z,3.50
2018-06-19T21:45:50.847Z,3.50
2018-06-19T21:48:18.641Z,3.60
2018-06-19T21:57:17.241Z,3.77
2018-06-19T21:59:44.980Z,3.73
2018-06-19T22:02:17.350Z,4.20
2018-06-19T22:04:45.069Z,4.00
2018-06-19T22:07:12.824Z,4.60
2018-06-19T22:09:40.612Z,4.43
2018-06-19T22:12:08.347Z,4.90
2018-06-19T22:14:36.117Z,4.97
2018-06-19T22:17:03.867Z,4.73
2018-06-19T22:19:31.627Z,4.60
2018-06-19T22:21:59.411Z,4.27
2018-06-19T22:24:27.162Z,4.93
2018-06-19T22:26:54.928Z,4.40
2018-06-19T22:29:22.647Z,4.27
2018-06-19T22:31:50.460Z,3.67
2018-06-19T22:34:18.212Z,3.83
2018-06-19T22:36:45.901Z,3.73
2018-06-19T22:39:13.671Z,4.43
2018-06-19T22:41:41.459Z,3.80
2018-06-19T22:44:09.176Z,3.63
2018-06-19T22:46:36.853Z,3.23
2018-06-19T22:49:04.588Z,3.80
2018-06-19T22:51:32.292Z,3.62
2018-06-19T22:54:00.084Z,4.20
2018-06-19T22:56:27.821Z,3.70
2018-06-19T22:58:55.589Z,4.12
2018-06-19T23:01:23.345Z,4.25
2018-06-19T23:03:51.153Z,4.22
2018-06-19T23:06:18.921Z,3.70
2018-06-19T23:08:46.676Z,4.60
2018-06-19T23:11:14.437Z,4.40
2018-06-19T23:13:42.166Z,4.50
2018-06-19T23:16:09.955Z,4.30
2018-06-19T23:18:37.729Z,4.10
2018-06-19T23:21:05.500Z,4.40
2018-06-19T23:23:33.233Z,4.30
2018-06-19T23:26:01.036Z,4.47
2018-06-19T23:28:28.778Z,4.37
2018-06-19T23:30:56.541Z,4.40
2018-06-19T23:33:24.296Z,4.00
2018-06-19T23:35:52.097Z,4.40
2018-06-19T23:38:20.675Z,4.08
2018-06-19T23:40:48.460Z,4.20
2018-06-19T23:43:16.212Z,4.35
2018-06-19T23:45:43.911Z,4.55
2018-06-19T23:48:11.649Z,4.35
2018-06-19T23:50:39.421Z,4.75
2018-06-19T23:53:07.276Z,4.30
2018-06-19T23:55:35.022Z,3.92
2018-06-19T23:58:02.844Z,4.70
